createdAt,value
2023-03-19T00:00:43.788Z,8.98
2023-03-19T00:05:54.379Z,9.10
2023-03-19T00:10:57.669Z,9.55
2023-03-19T00:16:01.625Z,10.07
2023-03-19T00:21:07.219Z,8.65
2023-03-19T00:31:16.538Z,9.60
2023-03-19T00:36:21.692Z,8.85
2023-03-19T00:41:25.085Z,9.52
2023-03-19T00:46:28.538Z,9.25
2023-03-19T00:51:33.201Z,9.25
2023-03-19T00:56:36.552Z,8.60
2023-03-19T01:01:39.921Z,8.23
2023-03-19T01:06:45.555Z,9.50
2023-03-19T01:16:52.328Z,8.07
2023-03-19T01:21:57.358Z,8.57
2023-03-19T01:27:01.505Z,9.43
2023-03-19T01:32:09.922Z,9.48
2023-03-19T01:37:34.282Z,7.97
2023-03-19T01:42:54.076Z,8.38
2023-03-19T01:48:27.004Z,9.20
2023-03-19T01:53:50.272Z,8.77
2023-03-19T01:59:05.245Z,8.52
2023-03-19T02:04:35.238Z,8.52
2023-03-19T02:09:41.130Z,7.97
2023-03-19T02:14:44.524Z,8.27
2023-03-19T02:19:55.313Z,8.88
2023-03-19T02:25:03.678Z,8.25
2023-03-19T02:30:23.850Z,9.10
2023-03-19T02:35:27.985Z,8.93
2023-03-19T02:40:35.493Z,10.82
2023-03-19T02:45:40.677Z,10.20
2023-03-19T02:50:43.933Z,9.02
2023-03-19T02:55:47.213Z,8.25
2023-03-19T03:00:52.804Z,8.15
2023-03-19T03:05:57.085Z,9.02
2023-03-19T03:11:00.336Z,7.75
2023-03-19T03:16:05.168Z,8.32
2023-03-19T03:21:08.485Z,8.77
2023-03-19T03:26:11.982Z,8.60
2023-03-19T03:31:16.977Z,8.07
2023-03-19T03:36:20.359Z,8.48
2023-03-19T03:41:23.644Z,8.25
2023-03-19T03:46:28.637Z,8.15
2023-03-19T03:51:32.955Z,8.40
2023-03-19T03:56:36.694Z,8.40
2023-03-19T04:01:41.424Z,7.88
2023-03-19T04:06:45.175Z,8.30
2023-03-19T04:12:02.300Z,8.32
2023-03-19T04:17:07.097Z,7.95
2023-03-19T04:22:10.507Z,8.23
2023-03-19T04:27:14.131Z,7.78
2023-03-19T04:32:19.189Z,7.95
2023-03-19T04:37:22.921Z,8.35
2023-03-19T04:42:33.120Z,8.17
2023-03-19T04:47:45.501Z,7.60
2023-03-19T04:52:49.750Z,8.23
2023-03-19T04:57:53.579Z,8.77
2023-03-19T05:03:03.536Z,8.27
2023-03-19T05:08:08.740Z,8.93
2023-03-19T05:13:12.625Z,8.57
2023-03-19T05:18:23.329Z,8.32
2023-03-19T05:23:26.762Z,8.77
2023-03-19T05:28:40.024Z,7.70
2023-03-19T05:33:44.861Z,8.63
2023-03-19T05:44:00.554Z,7.60
2023-03-19T05:49:25.942Z,8.10
2023-03-19T05:54:29.257Z,7.90
2023-03-19T05:59:42.685Z,8.52
2023-03-19T06:05:01.781Z,8.05
2023-03-19T06:10:08.247Z,8.85
2023-03-19T06:15:12.823Z,8.70
2023-03-19T06:20:23.084Z,8.82
2023-03-19T06:25:27.441Z,8.63
2023-03-19T06:30:31.404Z,7.30
2023-03-19T06:35:38.941Z,8.18
2023-03-19T06:40:42.676Z,8.43
2023-03-19T06:45:47.179Z,8.32
2023-03-19T06:50:51.810Z,7.95
2023-03-19T06:55:56.072Z,7.82
2023-03-19T07:00:59.875Z,7.53
2023-03-19T07:06:05.303Z,7.72
2023-03-19T07:11:08.930Z,7.38
2023-03-19T07:16:12.135Z,6.85
2023-03-19T07:21:17.135Z,8.32
2023-03-19T07:26:20.417Z,7.20
2023-03-19T07:31:24.559Z,7.22
2023-03-19T07:36:29.365Z,7.50
2023-03-19T07:41:32.942Z,8.80
2023-03-19T07:46:36.584Z,7.72
2023-03-19T07:51:41.233Z,6.70
2023-03-19T07:56:44.533Z,8.67
2023-03-19T08:01:48.343Z,10.10
2023-03-19T08:06:53.752Z,8.20
2023-03-19T08:11:57.030Z,6.32
2023-03-19T08:17:00.864Z,8.05
2023-03-19T08:22:06.215Z,6.20
2023-03-19T08:27:10.168Z,6.43
2023-03-19T08:32:13.905Z,6.07
2023-03-19T08:37:18.910Z,6.90
2023-03-19T08:42:23.057Z,6.13
2023-03-19T08:47:26.850Z,6.37
2023-03-19T08:52:32.287Z,6.07
2023-03-19T08:57:36.006Z,6.20
2023-03-19T09:02:40.391Z,6.38
2023-03-19T09:07:45.547Z,6.47
2023-03-19T09:12:48.883Z,6.17
2023-03-19T09:17:52.176Z,5.97
2023-03-19T09:22:56.844Z,6.32
2023-03-19T09:28:00.116Z,5.77
2023-03-19T09:33:03.406Z,6.07
2023-03-19T09:38:08.185Z,5.88
2023-03-19T09:43:40.891Z,6.00
2023-03-19T09:48:52.203Z,5.93
2023-03-19T09:53:59.441Z,6.05
2023-03-19T09:59:03.303Z,6.45
2023-03-19T10:04:25.786Z,5.70
2023-03-19T10:09:43.131Z,7.30
2023-03-19T10:15:15.290Z,6.25
2023-03-19T10:20:26.401Z,4.75
2023-03-19T10:25:34.318Z,4.97
2023-03-19T10:30:38.563Z,5.03
2023-03-19T10:35:45.943Z,4.05
2023-03-19T10:41:04.870Z,5.22
2023-03-19T10:46:13.943Z,5.32
2023-03-19T10:51:20.293Z,5.43
2023-03-19T10:56:27.739Z,4.78
2023-03-19T11:01:35.470Z,5.18
2023-03-19T11:06:42.189Z,4.65
2023-03-19T11:11:50.789Z,3.78
2023-03-19T11:16:58.976Z,3.78
2023-03-19T11:22:09.146Z,4.05
2023-03-19T11:27:13.900Z,4.00
2023-03-19T11:32:34.531Z,5.10
2023-03-19T11:37:54.471Z,3.55
2023-03-19T11:43:38.738Z,4.22
2023-03-19T11:49:07.657Z,3.55
2023-03-19T11:54:22.211Z,3.45
2023-03-19T11:59:47.078Z,3.22
2023-03-19T12:05:10.063Z,3.60
2023-03-19T12:10:31.306Z,4.38
2023-03-19T12:15:46.433Z,3.95
2023-03-19T12:21:00.738Z,3.20
2023-03-19T12:26:06.636Z,3.35
2023-03-19T12:31:28.217Z,3.92
2023-03-19T12:36:35.385Z,2.95
2023-03-19T12:41:43.491Z,2.22
2023-03-19T12:46:59.014Z,2.38
2023-03-19T12:52:10.107Z,3.22
2023-03-19T12:57:20.925Z,2.17
2023-03-19T13:02:32.064Z,2.00
2023-03-19T13:07:44.498Z,1.70
2023-03-19T13:12:51.382Z,1.63
2023-03-19T13:18:04.512Z,1.63
2023-03-19T13:23:09.549Z,1.45
2023-03-19T13:28:19.212Z,1.15
2023-03-19T13:33:24.822Z,1.58
2023-03-19T13:38:32.174Z,1.40
2023-03-19T13:43:54.590Z,1.40
2023-03-19T13:49:10.345Z,1.63
2023-03-19T13:54:18.437Z,1.77
2023-03-19T13:59:27.439Z,2.05
2023-03-19T14:04:33.682Z,2.38
2023-03-19T14:09:42.627Z,1.80
2023-03-19T14:14:49.219Z,2.10
2023-03-19T14:19:55.167Z,1.45
2023-03-19T14:25:14.424Z,2.03
2023-03-19T14:30:30.988Z,2.50
2023-03-19T14:35:40.355Z,2.25
2023-03-19T14:40:47.037Z,2.95
2023-03-19T14:45:58.987Z,2.88
2023-03-19T14:51:22.485Z,2.20
2023-03-19T14:56:28.267Z,1.98
2023-03-19T15:01:34.362Z,1.92
2023-03-19T15:06:42.560Z,1.67
2023-03-19T15:12:11.766Z,1.60
2023-03-19T15:17:21.954Z,1.90
2023-03-19T15:22:32.423Z,1.85
2023-03-19T15:27:36.273Z,1.83
2023-03-19T15:33:02.710Z,1.80
2023-03-19T15:38:10.147Z,1.80
2023-03-19T15:43:14.844Z,1.50
2023-03-19T15:48:22.966Z,1.30
2023-03-19T15:53:32.632Z,1.88
2023-03-19T15:58:41.700Z,2.33
2023-03-19T16:03:47.102Z,1.90
2023-03-19T16:08:54.233Z,2.50
2023-03-19T16:14:02.995Z,2.08
2023-03-19T16:19:06.507Z,2.20
2023-03-19T16:24:24.247Z,2.38
2023-03-19T16:29:28.964Z,2.90
2023-03-19T16:34:40.941Z,2.53
2023-03-19T16:39:56.008Z,2.55
2023-03-19T16:45:03.610Z,2.57
2023-03-19T16:50:07.964Z,2.47
2023-03-19T16:55:20.921Z,3.72
2023-03-19T17:00:26.291Z,3.47
2023-03-19T17:05:31.386Z,2.60
2023-03-19T17:10:38.564Z,2.53
2023-03-19T17:15:43.327Z,2.55
2023-03-19T17:20:52.200Z,2.93
2023-03-19T17:25:57.338Z,3.00
2023-03-19T17:31:00.929Z,2.42
2023-03-19T17:36:04.492Z,2.35
2023-03-19T17:41:16.865Z,2.47
2023-03-19T17:46:23.647Z,2.08
2023-03-19T17:51:27.671Z,2.13
2023-03-19T17:56:32.763Z,2.20
2023-03-19T18:01:36.669Z,2.95
2023-03-19T18:06:44.107Z,2.83
2023-03-19T18:11:48.845Z,2.90
2023-03-19T18:16:52.441Z,3.53
2023-03-19T18:21:56.137Z,3.08
2023-03-19T18:27:01.161Z,3.53
2023-03-19T18:32:07.675Z,3.87
2023-03-19T18:37:16.044Z,3.28
2023-03-19T18:42:21.113Z,2.80
2023-03-19T18:47:24.429Z,2.87
2023-03-19T18:52:27.794Z,3.17
2023-03-19T18:57:35.015Z,3.10
2023-03-19T19:02:38.637Z,3.10
2023-03-19T19:07:42.121Z,3.40
2023-03-19T19:12:59.749Z,3.33
2023-03-19T19:18:07.113Z,3.63
2023-03-19T19:23:11.406Z,3.05
2023-03-19T19:28:21.802Z,3.70
2023-03-19T19:33:28.766Z,3.70
2023-03-19T19:38:32.393Z,3.33
2023-03-19T19:43:37.136Z,4.03
2023-03-19T19:48:40.762Z,4.67
2023-03-19T19:53:44.117Z,4.22
2023-03-19T19:58:51.252Z,4.97
2023-03-19T20:03:54.885Z,5.28
2023-03-19T20:08:58.345Z,5.22
2023-03-19T20:14:03.094Z,5.57
2023-03-19T20:19:07.306Z,5.00
2023-03-19T20:24:10.950Z,4.10
2023-03-19T20:29:16.726Z,4.63
2023-03-19T20:34:36.420Z,3.88
2023-03-19T20:39:42.248Z,3.80
2023-03-19T20:44:47.380Z,3.58
2023-03-19T20:49:51.283Z,4.20
2023-03-19T20:54:54.841Z,3.63
2023-03-19T21:00:03.085Z,3.58
2023-03-19T21:05:07.827Z,4.45
2023-03-19T21:10:22.366Z,4.80
2023-03-19T21:15:27.475Z,4.47
2023-03-19T21:25:37.101Z,3.78
2023-03-19T21:30:45.869Z,3.17
2023-03-19T21:35:49.285Z,2.80
2023-03-19T21:40:55.443Z,2.85
2023-03-19T21:46:04.169Z,2.38
2023-03-19T21:51:16.323Z,2.40
2023-03-19T21:56:23.874Z,3.30
2023-03-19T22:01:28.500Z,2.33
2023-03-19T22:06:32.802Z,2.58
2023-03-19T22:11:38.176Z,2.67
2023-03-19T22:16:44.743Z,2.45
2023-03-19T22:21:49.510Z,2.28
2023-03-19T22:26:58.668Z,2.87
2023-03-19T22:32:03.677Z,2.03
2023-03-19T22:37:23.337Z,1.80
2023-03-19T22:42:28.038Z,1.88
2023-03-19T22:47:36.691Z,2.00
2023-03-19T22:52:40.290Z,2.67
2023-03-19T22:57:43.782Z,2.45
2023-03-19T23:02:54.725Z,2.70
2023-03-19T23:07:58.122Z,2.30
2023-03-19T23:13:01.754Z,2.33
2023-03-19T23:18:16.154Z,1.95
2023-03-19T23:23:19.722Z,2.20
2023-03-19T23:28:25.487Z,2.10
2023-03-19T23:33:31.262Z,3.15
2023-03-19T23:38:34.838Z,2.33
2023-03-19T23:43:38.119Z,2.28
2023-03-19T23:48:43.132Z,2.15
2023-03-19T23:53:47.087Z,2.15
2023-03-19T23:58:53.043Z,2.35
